Time;durP1;ratioP1;P1;durP2;ratioP2;P2;SDS_P1;SDS_P2;PMS_P1;PMS_P2;Temp;Humidity;BMP_temperature;BMP_pressure;BME280_temperature;BME280_humidity;BME280_pressure;Samples;Min_cycle;Max_cycle;Signal;HPM_P1;HPM_P2
2022/09/12 00:01:10;;;;;;;5.18;4.20;;;14.40;99.90;;;;;;5015665;28;20080;-65
2022/09/12 00:03:37;;;;;;;6.80;5.00;;;14.40;99.90;;;;;;5033654;28;20041;-65
2022/09/12 00:06:17;;;;;;;6.13;4.53;;;14.40;99.90;;;;;;5032910;28;20358;-66
2022/09/12 00:08:43;;;;;;;5.38;4.00;;;14.30;99.90;;;;;;5033598;28;20045;-65
2022/09/12 00:11:10;;;;;;;5.30;4.13;;;14.30;99.90;;;;;;5033443;28;20042;-65
2022/09/12 00:13:37;;;;;;;4.88;4.00;;;14.30;99.90;;;;;;5033091;28;20041;-65
2022/09/12 00:16:04;;;;;;;5.68;4.22;;;14.20;99.90;;;;;;5033478;28;20037;-65
2022/09/12 00:18:31;;;;;;;9.32;4.88;;;14.20;99.90;;;;;;5033414;28;20600;-65
2022/09/12 00:21:01;;;;;;;6.10;4.80;;;14.20;99.90;;;;;;5015482;28;20045;-65
2022/09/12 00:23:26;;;;;;;7.13;4.30;;;14.10;99.90;;;;;;5033382;28;20477;-68
2022/09/12 00:25:52;;;;;;;6.15;4.03;;;14.10;99.90;;;;;;5033115;28;20059;-69
2022/09/12 00:28:18;;;;;;;7.05;4.32;;;14.10;99.90;;;;;;5032853;28;20141;-69
2022/09/12 00:30:47;;;;;;;5.70;4.13;;;14.00;99.90;;;;;;5032903;28;20100;-69
2022/09/12 00:33:15;;;;;;;6.03;3.75;;;14.00;99.90;;;;;;5033307;28;20044;-69
2022/09/12 00:35:45;;;;;;;6.97;4.72;;;14.00;99.90;;;;;;5032956;28;20072;-68
2022/09/12 00:38:12;;;;;;;;;;;14.00;99.90;;;;;;5033197;28;20040;-68
2022/09/12 00:40:38;;;;;;;5.40;4.28;;;13.90;99.90;;;;;;5033073;28;19920;-68
2022/09/12 00:43:04;;;;;;;7.07;4.97;;;13.90;99.90;;;;;;5015449;28;20103;-68
2022/09/12 00:45:31;;;;;;;7.60;4.55;;;13.90;99.90;;;;;;5032838;28;20041;-68
2022/09/12 00:48:02;;;;;;;6.28;4.30;;;13.90;99.90;;;;;;5033101;28;20374;-68
2022/09/12 00:50:30;;;;;;;13.55;5.65;;;14.00;99.90;;;;;;5032983;28;20500;-68
2022/09/12 00:53:03;;;;;;;6.97;5.20;;;14.00;99.90;;;;;;5034184;28;20190;-68
2022/09/12 00:55:39;;;;;;;8.65;5.13;;;13.90;99.90;;;;;;5036984;28;20493;-68
2022/09/12 00:58:05;;;;;;;6.68;4.97;;;13.90;99.90;;;;;;5037039;28;20048;-68
2022/09/12 01:00:31;;;;;;;6.50;5.18;;;13.90;99.90;;;;;;5036993;28;20041;-68
2022/09/12 01:03:08;;;;;;;6.88;5.13;;;13.90;99.90;;;;;;5036976;28;20124;-69
2022/09/12 01:05:39;;;;;;;8.07;5.50;;;13.90;99.90;;;;;;5036586;28;20416;-69
2022/09/12 01:08:05;;;;;;;9.15;5.30;;;13.80;99.90;;;;;;5036612;28;20041;-69
2022/09/12 01:10:34;;;;;;;5.72;4.45;;;13.80;99.90;;;;;;5036744;28;20064;-68
2022/09/12 01:13:02;;;;;;;7.13;4.65;;;13.80;99.90;;;;;;5036751;28;20439;-69
2022/09/12 01:15:27;;;;;;;6.25;4.75;;;13.80;99.90;;;;;;5036737;28;20033;-69
2022/09/12 01:17:53;;;;;;;7.60;4.85;;;13.70;99.90;;;;;;5036390;28;20069;-68
2022/09/12 01:20:41;;;;;;;7.05;5.07;;;13.70;99.90;;;;;;5036265;28;20052;-69
2022/09/12 01:23:19;;;;;;;11.52;6.13;;;13.70;99.90;;;;;;5036513;28;20124;-68
2022/09/12 01:25:45;;;;;;;7.55;5.85;;;13.60;99.90;;;;;;5036524;28;20085;-69
2022/09/12 01:28:35;;;;;;;8.43;5.85;;;13.60;99.90;;;;;;5036188;28;20108;-69
2022/09/12 01:31:13;;;;;;;8.00;5.75;;;13.60;99.90;;;;;;5036375;28;20485;-69
2022/09/12 01:34:09;;;;;;;7.65;5.75;;;13.60;99.90;;;;;;5036098;28;20085;-69
2022/09/12 01:37:03;;;;;;;8.32;6.03;;;13.60;99.90;;;;;;5016240;28;20053;-69
2022/09/12 01:39:38;;;;;;;6.93;5.40;;;13.60;99.90;;;;;;4998661;28;20139;-69
2022/09/12 01:42:23;;;;;;;10.95;6.47;;;13.60;99.90;;;;;;5016486;28;20077;-69
2022/09/12 01:45:02;;;;;;;7.93;5.70;;;13.50;99.90;;;;;;5016477;28;20123;-69
2022/09/12 01:47:45;;;;;;;8.13;5.95;;;13.50;99.90;;;;;;5016066;28;20049;-68
2022/09/12 01:50:20;;;;;;;11.27;6.30;;;13.60;99.90;;;;;;5015917;28;20046;-69
2022/09/12 01:52:58;;;;;;;8.65;7.07;;;13.60;99.90;;;;;;5016298;28;20163;-69
2022/09/12 01:55:56;;;;;;;9.52;5.55;;;13.60;99.90;;;;;;5016245;28;20073;-69
2022/09/12 01:58:44;;;;;;;9.07;6.47;;;13.60;99.90;;;;;;4992686;28;20061;-69
2022/09/12 02:01:16;;;;;;;9.88;6.63;;;13.60;99.90;;;;;;5016093;28;20183;-65
2022/09/12 02:03:43;;;;;;;8.95;5.88;;;13.60;99.90;;;;;;4997665;28;20046;-65
2022/09/12 02:06:22;;;;;;;8.45;6.15;;;13.60;99.90;;;;;;5017503;28;20041;-65
2022/09/12 02:08:54;;;;;;;8.82;6.22;;;13.70;99.90;;;;;;5035517;28;20508;-67
2022/09/12 02:11:21;;;;;;;11.65;6.57;;;13.60;99.90;;;;;;5035637;28;20120;-65
2022/09/12 02:13:57;;;;;;;10.90;6.50;;;13.70;99.90;;;;;;5035643;28;20033;-65
2022/09/12 02:16:56;;;;;;;10.90;7.10;;;13.70;99.90;;;;;;5035137;28;20048;-65
2022/09/12 02:19:26;;;;;;;11.98;7.03;;;13.70;99.90;;;;;;4985094;28;20049;-66
2022/09/12 02:21:59;;;;;;;11.77;6.55;;;13.70;99.90;;;;;;5035544;28;20049;-65
2022/09/12 02:24:32;;;;;;;11.65;6.57;;;13.70;99.90;;;;;;5035212;28;20069;-65
2022/09/12 02:27:05;;;;;;;13.02;7.78;;;13.70;99.90;;;;;;5035223;28;20053;-65
2022/09/12 02:29:31;;;;;;;11.70;7.60;;;13.70;99.90;;;;;;5035363;28;20060;-65
2022/09/12 02:32:07;;;;;;;12.70;7.57;;;13.70;99.90;;;;;;5035050;28;20435;-65
2022/09/12 02:34:54;;;;;;;11.90;7.55;;;13.70;99.90;;;;;;5035350;28;20392;-65
2022/09/12 02:37:24;;;;;;;12.73;7.45;;;13.70;99.90;;;;;;5017139;28;20044;-65
2022/09/12 02:39:54;;;;;;;11.32;7.22;;;13.70;99.90;;;;;;5017142;28;20120;-65
2022/09/12 02:42:20;;;;;;;11.38;7.72;;;13.70;99.90;;;;;;5035044;28;20489;-65
2022/09/12 02:44:46;;;;;;;12.65;8.32;;;13.70;99.90;;;;;;5017076;28;20056;-65
2022/09/12 02:47:22;;;;;;;13.07;8.73;;;13.70;99.90;;;;;;5035014;28;20042;-65
2022/09/12 02:49:48;;;;;;;14.65;7.82;;;13.70;99.90;;;;;;5000601;28;20041;-65
2022/09/12 02:52:14;;;;;;;13.30;8.00;;;13.70;99.90;;;;;;5035010;28;20370;-65
2022/09/12 02:54:41;;;;;;;14.52;8.73;;;13.80;99.90;;;;;;5034858;28;20392;-66
2022/09/12 02:57:18;;;;;;;12.93;8.32;;;13.70;99.90;;;;;;5034713;28;20044;-66
2022/09/12 02:59:45;;;;;;;14.75;9.00;;;13.80;99.90;;;;;;5034638;28;20033;-66
2022/09/12 03:02:31;;;;;;;15.50;9.23;;;13.70;99.90;;;;;;5034772;28;20041;-65
2022/09/12 03:05:33;;;;;;;12.05;8.15;;;13.70;99.90;;;;;;5034507;28;20041;-66
2022/09/12 03:08:26;;;;;;;13.77;8.30;;;13.80;99.90;;;;;;4982957;28;20042;-65
2022/09/12 03:11:25;;;;;;;14.27;9.32;;;13.70;99.90;;;;;;5034512;28;20076;-65
2022/09/12 03:14:34;;;;;;;14.20;8.57;;;13.70;99.90;;;;;;5034330;28;20050;-64
2022/09/12 03:17:22;;;;;;;12.75;8.45;;;13.80;99.90;;;;;;5015981;28;20140;-65
2022/09/12 03:19:48;;;;;;;17.40;8.93;;;13.80;99.90;;;;;;5034461;28;20041;-65
2022/09/12 03:22:27;;;;;;;18.00;9.63;;;13.80;99.90;;;;;;5016254;28;20396;-65
2022/09/12 03:25:25;;;;;;;19.13;10.18;;;13.80;99.90;;;;;;5034213;28;20102;-65
2022/09/12 03:28:21;;;;;;;16.35;9.43;;;13.80;99.90;;;;;;5020593;28;20058;-65
2022/09/12 03:30:50;;;;;;;17.00;8.32;;;13.80;99.90;;;;;;5029002;28;20053;-65
2022/09/12 03:33:18;;;;;;;16.33;8.98;;;13.80;99.90;;;;;;5034168;28;20056;-65
2022/09/12 03:35:45;;;;;;;18.77;10.50;;;13.80;99.90;;;;;;5034212;28;20071;-65
2022/09/12 03:38:11;;;;;;;15.80;8.65;;;13.70;99.90;;;;;;5034087;28;20038;-65
2022/09/12 03:40:38;;;;;;;13.23;8.23;;;13.70;99.90;;;;;;5033777;28;20042;-65
2022/09/12 03:43:04;;;;;;;14.68;8.50;;;13.70;99.90;;;;;;5028950;28;20084;-65
2022/09/12 03:45:30;;;;;;;13.48;9.50;;;13.70;99.90;;;;;;5025879;28;20397;-65
2022/09/12 03:47:57;;;;;;;16.80;9.80;;;13.60;99.90;;;;;;5033590;28;20034;-65
2022/09/12 03:50:22;;;;;;;14.27;8.32;;;13.60;99.90;;;;;;5033454;28;20053;-65
2022/09/12 03:52:48;;;;;;;17.77;8.65;;;13.60;99.90;;;;;;5033754;28;20040;-65
2022/09/12 03:55:14;;;;;;;19.05;9.45;;;13.60;99.90;;;;;;5033714;28;20041;-65
2022/09/12 03:57:40;;;;;;;14.20;9.00;;;13.60;99.90;;;;;;5033660;28;20491;-65
2022/09/12 04:00:07;;;;;;;18.98;9.23;;;13.60;99.90;;;;;;5033713;28;20045;-65
2022/09/12 04:02:33;;;;;;;15.50;8.70;;;13.60;99.90;;;;;;5033667;28;20076;-65
2022/09/12 04:04:59;;;;;;;16.10;8.90;;;13.60;99.90;;;;;;5033266;28;20041;-65
2022/09/12 04:07:25;;;;;;;16.70;9.07;;;13.50;99.90;;;;;;5033586;28;20049;-65
2022/09/12 04:09:52;;;;;;;15.75;9.25;;;13.60;99.90;;;;;;5015660;28;20111;-66
2022/09/12 04:12:18;;;;;;;20.67;8.95;;;13.50;99.90;;;;;;5033585;28;20033;-65
2022/09/12 04:14:44;;;;;;;15.10;9.23;;;13.50;99.90;;;;;;5033158;28;20041;-65
2022/09/12 04:17:10;;;;;;;19.10;10.00;;;13.50;99.90;;;;;;5033077;28;20508;-65
2022/09/12 04:19:36;;;;;;;13.65;9.20;;;13.50;99.90;;;;;;5033424;28;20041;-65
2022/09/12 04:22:02;;;;;;;13.52;8.70;;;13.50;99.90;;;;;;5033333;28;20120;-65
2022/09/12 04:24:27;;;;;;;18.45;9.55;;;13.40;99.90;;;;;;5015872;28;20126;-65
2022/09/12 04:26:53;;;;;;;18.65;9.98;;;13.50;99.90;;;;;;5032167;28;20513;-65
2022/09/12 04:29:19;;;;;;;15.68;9.50;;;13.50;99.90;;;;;;5033080;28;20099;-65
2022/09/12 04:31:45;;;;;;;14.70;8.60;;;13.40;99.90;;;;;;5033154;28;20045;-65
2022/09/12 04:34:10;;;;;;;13.48;8.48;;;13.40;99.90;;;;;;5033110;28;20444;-65
2022/09/12 04:36:36;;;;;;;14.48;9.35;;;13.40;99.90;;;;;;5033203;28;20144;-65
2022/09/12 04:39:03;;;;;;;15.30;9.32;;;13.40;99.90;;;;;;5015135;28;20073;-65
2022/09/12 04:41:31;;;;;;;15.68;9.38;;;13.40;99.90;;;;;;5015068;28;20056;-65
2022/09/12 04:44:02;;;;;;;15.05;8.73;;;13.40;99.90;;;;;;5032992;28;20041;-65
2022/09/12 04:46:30;;;;;;;16.40;8.63;;;13.40;99.90;;;;;;5033149;28;20045;-65
2022/09/12 04:48:56;;;;;;;15.70;9.07;;;13.40;99.90;;;;;;5032932;28;20172;-65
2022/09/12 04:51:32;;;;;;;16.92;10.15;;;13.40;99.90;;;;;;5015181;28;20627;-65
2022/09/12 04:54:07;;;;;;;20.23;10.07;;;13.40;99.90;;;;;;5033028;28;20037;-65
2022/09/12 04:56:37;;;;;;;17.48;9.80;;;13.40;99.90;;;;;;5032982;28;20077;-65
2022/09/12 04:59:03;;;;;;;19.10;9.80;;;13.40;99.90;;;;;;5032697;28;20038;-65
2022/09/12 05:01:29;;;;;;;18.90;9.75;;;13.50;99.90;;;;;;5024797;28;20042;-65
2022/09/12 05:03:56;;;;;;;15.10;8.85;;;13.50;99.90;;;;;;5032885;28;20045;-65
2022/09/12 05:06:29;;;;;;;13.43;9.02;;;13.50;99.90;;;;;;5032571;28;20088;-65
2022/09/12 05:08:57;;;;;;;16.55;9.75;;;13.50;99.90;;;;;;5015126;28;20053;-65
2022/09/12 05:11:26;;;;;;;18.35;10.43;;;13.60;99.90;;;;;;5032672;28;20404;-65
2022/09/12 05:13:52;;;;;;;17.90;10.27;;;13.60;99.90;;;;;;5032842;28;20038;-65
2022/09/12 05:16:18;;;;;;;18.58;10.10;;;13.70;99.90;;;;;;5032520;28;20041;-65
2022/09/12 05:18:45;;;;;;;22.17;10.77;;;13.70;99.90;;;;;;5032513;28;20042;-65
2022/09/12 05:21:13;;;;;;;20.75;10.15;;;13.70;99.90;;;;;;5032783;28;20507;-65
2022/09/12 05:23:39;;;;;;;17.17;9.95;;;13.80;99.90;;;;;;5032738;28;20049;-66
2022/09/12 05:26:06;;;;;;;18.33;9.95;;;13.80;99.90;;;;;;5032312;28;20049;-66
2022/09/12 05:28:37;;;;;;;16.50;10.00;;;13.90;99.90;;;;;;5032222;28;20081;-66
2022/09/12 05:31:23;;;;;;;19.30;10.40;;;14.00;99.90;;;;;;5014732;28;20099;-66
2022/09/12 05:33:52;;;;;;;17.30;8.70;;;14.00;99.90;;;;;;5032352;28;20033;-66
2022/09/12 05:36:28;;;;;;;19.70;9.80;;;14.10;99.90;;;;;;5032623;28;20038;-66
2022/09/12 05:38:54;;;;;;;16.67;8.90;;;14.10;99.90;;;;;;5016266;28;20045;-66
2022/09/12 05:41:25;;;;;;;18.00;10.48;;;14.20;99.90;;;;;;5036275;28;20049;-66
2022/09/12 05:43:53;;;;;;;15.88;10.07;;;14.20;99.90;;;;;;5036220;28;20042;-65
2022/09/12 05:46:21;;;;;;;19.67;10.40;;;14.30;99.90;;;;;;5036222;28;20512;-65
2022/09/12 05:48:48;;;;;;;22.00;9.93;;;14.30;99.90;;;;;;5036226;28;20408;-64
2022/09/12 05:51:18;;;;;;;25.35;11.00;;;14.30;99.90;;;;;;5036036;28;20053;-63
2022/09/12 05:53:48;;;;;;;19.90;10.90;;;14.40;99.90;;;;;;5035682;28;20041;-64
2022/09/12 05:56:23;;;;;;;19.70;10.65;;;14.40;99.90;;;;;;5036004;28;20148;-66
2022/09/12 05:58:58;;;;;;;20.67;11.40;;;14.50;99.90;;;;;;5035637;28;20045;-66
2022/09/12 06:01:26;;;;;;;19.02;10.35;;;14.60;99.90;;;;;;5001623;28;20092;-65
2022/09/12 06:03:53;;;;;;;20.77;10.70;;;14.60;99.90;;;;;;5018537;28;20077;-66
2022/09/12 06:06:21;;;;;;;20.70;10.55;;;14.60;99.90;;;;;;5053944;28;20044;-67
2022/09/12 06:08:49;;;;;;;18.48;10.43;;;14.60;99.90;;;;;;5055720;28;20037;-65
2022/09/12 06:11:17;;;;;;;20.10;10.70;;;14.60;99.90;;;;;;5054462;28;20067;-65
2022/09/12 06:13:43;;;;;;;21.23;11.32;;;14.70;99.90;;;;;;5055697;28;20079;-65
2022/09/12 06:16:18;;;;;;;20.92;10.95;;;14.70;99.90;;;;;;5054084;28;20045;-65
2022/09/12 06:18:48;;;;;;;20.73;10.93;;;14.70;99.90;;;;;;5055242;28;20036;-65
2022/09/12 06:21:14;;;;;;;20.13;10.07;;;14.70;99.90;;;;;;5055485;28;20052;-63
2022/09/12 06:23:40;;;;;;;21.83;11.13;;;14.70;99.90;;;;;;5055504;28;20149;-64
2022/09/12 06:26:08;;;;;;;23.17;10.93;;;14.70;99.90;;;;;;5053662;28;20106;-64
2022/09/12 06:28:36;;;;;;;18.98;10.68;;;14.80;99.90;;;;;;5054779;28;20044;-64
2022/09/12 06:31:09;;;;;;;25.02;11.70;;;14.80;99.90;;;;;;5053438;28;20057;-64
2022/09/12 06:33:38;;;;;;;25.13;11.00;;;14.80;99.90;;;;;;5053090;28;20052;-64
2022/09/12 06:36:13;;;;;;;21.17;11.30;;;14.90;99.90;;;;;;5033350;28;20044;-64
2022/09/12 06:38:39;;;;;;;18.67;9.35;;;14.90;99.90;;;;;;5035128;28;20057;-64
2022/09/12 06:41:07;;;;;;;26.55;11.38;;;14.90;99.90;;;;;;5034756;28;20045;-64
2022/09/12 06:43:34;;;;;;;22.60;10.88;;;15.00;99.90;;;;;;5034766;28;20120;-64
2022/09/12 06:46:00;;;;;;;24.55;12.60;;;15.00;99.90;;;;;;5035046;28;20048;-63
2022/09/12 06:48:26;;;;;;;19.13;9.60;;;15.00;99.90;;;;;;5034971;28;20136;-64
2022/09/12 06:51:04;;;;;;;19.38;10.18;;;15.00;99.90;;;;;;5033612;28;20083;-63
2022/09/12 06:53:32;;;;;;;19.50;11.30;;;15.10;99.90;;;;;;5034815;28;20112;-63
2022/09/12 06:56:19;;;;;;;20.30;9.70;;;15.10;99.90;;;;;;5034800;28;20084;-64
2022/09/12 06:58:47;;;;;;;21.33;11.13;;;15.10;99.90;;;;;;5034629;28;20038;-64
2022/09/12 07:01:40;;;;;;;19.77;11.75;;;15.20;99.90;;;;;;5034767;28;20400;-64
2022/09/12 07:04:06;;;;;;;16.75;10.05;;;15.20;99.90;;;;;;5030665;28;20049;-63
2022/09/12 07:06:37;;;;;;;25.98;11.27;;;15.20;99.90;;;;;;5034652;28;20037;-64
2022/09/12 07:09:05;;;;;;;20.70;10.32;;;15.20;99.90;;;;;;5032804;28;20112;-64
2022/09/12 07:11:35;;;;;;;20.23;10.13;;;15.30;99.90;;;;;;5034153;28;20099;-64
2022/09/12 07:14:04;;;;;;;19.80;10.65;;;15.30;99.90;;;;;;5034181;28;20041;-64
2022/09/12 07:16:30;;;;;;;20.33;11.02;;;15.30;99.90;;;;;;5034303;28;20516;-64
2022/09/12 07:18:59;;;;;;;21.75;10.20;;;15.40;99.90;;;;;;5016636;28;20111;-64
2022/09/12 07:21:25;;;;;;;18.52;10.50;;;15.40;99.90;;;;;;5034000;28;20570;-63
2022/09/12 07:23:54;;;;;;;21.13;11.23;;;15.40;99.90;;;;;;5034301;28;20508;-64
2022/09/12 07:26:20;;;;;;;19.20;10.90;;;15.50;99.90;;;;;;5032455;28;20115;-65
2022/09/12 07:28:51;;;;;;;22.88;10.90;;;15.50;99.90;;;;;;4996439;28;20069;-64
2022/09/12 07:31:18;;;;;;;20.27;10.23;;;15.50;99.90;;;;;;4996703;28;20046;-64
2022/09/12 07:33:44;;;;;;;19.10;10.88;;;15.50;99.90;;;;;;5014673;28;20037;-64
2022/09/12 07:36:12;;;;;;;20.08;9.63;;;15.60;99.90;;;;;;5014443;28;20053;-64
2022/09/12 07:38:39;;;;;;;17.83;10.23;;;15.60;99.90;;;;;;5014061;28;20040;-65
2022/09/12 07:41:19;;;;;;;24.23;9.98;;;15.70;99.90;;;;;;4996684;28;20091;-64
2022/09/12 07:43:45;;;;;;;19.75;10.30;;;15.80;99.90;;;;;;5014025;28;20107;-65
2022/09/12 07:46:13;;;;;;;18.75;9.73;;;15.70;99.90;;;;;;5014087;28;20087;-64
2022/09/12 07:48:39;;;;;;;19.17;10.13;;;;;;;;;;5014277;28;20034;-64
2022/09/12 07:51:08;;;;;;;17.83;9.05;;;16.00;99.90;;;;;;5014204;28;20042;-64
2022/09/12 07:53:37;;;;;;;15.30;8.90;;;16.10;99.90;;;;;;5013844;28;20088;-64
2022/09/12 07:56:04;;;;;;;19.10;9.90;;;16.20;99.90;;;;;;5014106;28;20421;-64
2022/09/12 07:58:32;;;;;;;18.38;9.57;;;16.30;99.90;;;;;;5014099;28;20143;-65
2022/09/12 08:01:22;;;;;;;19.23;9.60;;;16.40;99.90;;;;;;5014103;28;20172;-64
2022/09/12 08:03:51;;;;;;;17.88;9.05;;;16.50;99.90;;;;;;4984616;28;20062;-65
2022/09/12 08:06:19;;;;;;;18.10;8.93;;;16.50;99.90;;;;;;5013828;28;20046;-64
2022/09/12 08:08:46;;;;;;;12.85;8.00;;;16.60;99.90;;;;;;4980037;28;20045;-67
2022/09/12 08:11:14;;;;;;;14.85;7.65;;;16.60;99.90;;;;;;4995960;28;20040;-68
2022/09/12 08:13:41;;;;;;;14.40;7.95;;;16.60;99.90;;;;;;5013891;28;20512;-68
2022/09/12 08:16:14;;;;;;;20.88;8.52;;;16.60;99.90;;;;;;4995938;28;20056;-68
2022/09/12 08:18:40;;;;;;;14.18;8.25;;;16.60;99.90;;;;;;5013648;28;20042;-69
2022/09/12 08:21:12;;;;;;;14.68;7.97;;;;;;;;;;5013596;28;20041;-68
2022/09/12 08:23:38;;;;;;;11.80;6.68;;;16.70;99.90;;;;;;4995791;28;20085;-69
2022/09/12 08:26:05;;;;;;;17.02;7.70;;;16.70;99.90;;;;;;4995877;28;20073;-69
2022/09/12 08:28:33;;;;;;;15.02;7.93;;;16.80;99.90;;;;;;4995261;28;20049;-65
2022/09/12 08:31:04;;;;;;;12.57;6.95;;;16.90;99.90;;;;;;5013308;28;20037;-65
2022/09/12 08:33:32;;;;;;;17.38;6.68;;;16.90;99.90;;;;;;4995549;28;20042;-65
2022/09/12 08:36:04;;;;;;;12.63;6.22;;;17.00;99.90;;;;;;5012952;28;20073;-65
2022/09/12 08:38:30;;;;;;;14.48;6.90;;;17.10;99.90;;;;;;5012842;28;20103;-65
2022/09/12 08:41:10;;;;;;;13.65;6.93;;;17.20;99.90;;;;;;5013123;28;20091;-65
2022/09/12 08:43:48;;;;;;;10.87;6.63;;;17.30;99.90;;;;;;5013200;28;20034;-65
2022/09/12 08:46:37;;;;;;;15.00;6.85;;;17.50;99.90;;;;;;5013040;28;20042;-65
2022/09/12 08:49:06;;;;;;;11.98;6.50;;;17.40;99.90;;;;;;5013061;28;20121;-65
2022/09/12 08:51:34;;;;;;;11.73;6.90;;;17.40;99.90;;;;;;5013004;28;20104;-64
2022/09/12 08:54:01;;;;;;;11.18;6.40;;;17.40;99.90;;;;;;4995351;28;20052;-64
2022/09/12 08:56:30;;;;;;;12.57;6.22;;;17.40;99.90;;;;;;5013010;28;20109;-65
2022/09/12 08:58:56;;;;;;;10.70;6.07;;;17.40;99.90;;;;;;5012791;28;20108;-65
2022/09/12 09:01:37;;;;;;;13.82;7.07;;;17.50;99.90;;;;;;5012986;28;20050;-65
2022/09/12 09:04:20;;;;;;;14.45;6.63;;;17.60;99.90;;;;;;5012708;28;20101;-65
2022/09/12 09:07:17;;;;;;;11.43;6.63;;;17.60;99.90;;;;;;5012860;28;20452;-65
2022/09/12 09:10:06;;;;;;;16.88;6.93;;;17.70;99.90;;;;;;5012699;28;20041;-65
2022/09/12 09:12:59;;;;;;;12.65;6.68;;;17.80;99.90;;;;;;5012978;28;20064;-65
2022/09/12 09:15:47;;;;;;;13.15;7.13;;;17.80;99.90;;;;;;5016704;28;20439;-65
2022/09/12 09:18:22;;;;;;;12.95;7.43;;;17.90;99.90;;;;;;5016528;28;20457;-65
2022/09/12 09:20:59;;;;;;;12.52;6.40;;;17.90;99.90;;;;;;5016725;28;20401;-65
2022/09/12 09:23:33;;;;;;;13.45;6.82;;;18.10;99.90;;;;;;4999055;28;20041;-65
2022/09/12 09:26:14;;;;;;;13.73;7.43;;;18.10;99.90;;;;;;5016823;28;20049;-65
2022/09/12 09:28:52;;;;;;;12.27;7.47;;;18.30;99.90;;;;;;5010144;28;20479;-65
2022/09/12 09:31:23;;;;;;;17.60;8.23;;;18.40;99.90;;;;;;5016545;28;20042;-64
2022/09/12 09:33:50;;;;;;;;;;;;;;;;;;5016970;28;20381;-65
2022/09/12 09:36:35;;;;;;;18.63;8.82;;;;;;;;;;5016601;28;20411;-65
2022/09/12 09:39:04;;;;;;;17.33;8.65;;;18.50;99.90;;;;;;5016591;28;20042;-65
2022/09/12 09:41:55;;;;;;;17.55;8.75;;;18.60;99.90;;;;;;5016434;28;20053;-65
2022/09/12 09:44:22;;;;;;;20.30;8.60;;;18.60;99.90;;;;;;5016468;28;20486;-65
2022/09/12 09:46:55;;;;;;;12.40;7.20;;;;;;;;;;5016532;28;20049;-65
2022/09/12 09:49:21;;;;;;;19.20;9.95;;;;;;;;;;5016358;28;20042;-65
2022/09/12 09:51:47;;;;;;;19.73;9.70;;;18.90;99.90;;;;;;5015973;28;20046;-65
2022/09/12 09:54:24;;;;;;;17.67;9.85;;;19.00;99.90;;;;;;5016293;28;20033;-64
2022/09/12 09:56:50;;;;;;;16.05;9.55;;;19.10;99.90;;;;;;5016162;28;20483;-64
2022/09/12 09:59:26;;;;;;;18.35;9.68;;;19.10;99.90;;;;;;5016084;28;20113;-65
2022/09/12 10:02:17;;;;;;;19.02;9.90;;;19.30;99.70;;;;;;5015879;28;20114;-64
2022/09/12 10:04:54;;;;;;;22.92;10.15;;;19.30;98.20;;;;;;5017910;28;20117;-64
2022/09/12 10:07:21;;;;;;;23.50;11.10;;;19.50;98.40;;;;;;5017951;28;20088;-65
2022/09/12 10:10:14;;;;;;;20.42;9.82;;;19.70;98.80;;;;;;5017801;28;20037;-65
2022/09/12 10:12:40;;;;;;;18.33;9.90;;;19.80;97.70;;;;;;5017847;28;20080;-65
2022/09/12 10:15:29;;;;;;;21.58;9.57;;;20.00;98.80;;;;;;5035410;28;20037;-65
2022/09/12 10:18:15;;;;;;;14.20;8.50;;;20.00;96.00;;;;;;5035385;28;20037;-64
2022/09/12 10:20:51;;;;;;;16.63;8.32;;;19.90;96.50;;;;;;5017388;28;20072;-65
2022/09/12 10:23:18;;;;;;;16.40;8.63;;;19.90;95.50;;;;;;5035389;28;20512;-65
2022/09/12 10:25:52;;;;;;;19.80;9.55;;;19.90;95.90;;;;;;4999848;28;20071;-66
2022/09/12 10:28:28;;;;;;;20.48;8.85;;;20.00;97.50;;;;;;5017744;28;20129;-65
2022/09/12 10:30:55;;;;;;;18.17;9.07;;;20.10;97.50;;;;;;5015595;28;20124;-65
2022/09/12 10:33:23;;;;;;;15.85;8.88;;;20.20;96.60;;;;;;5015267;28;20057;-65
2022/09/12 10:35:51;;;;;;;18.50;8.90;;;20.10;95.50;;;;;;4997748;28;20049;-64
2022/09/12 10:38:27;;;;;;;16.02;7.97;;;20.20;96.00;;;;;;4998046;28;20042;-65
2022/09/12 10:41:11;;;;;;;17.52;8.48;;;20.40;96.90;;;;;;5015550;28;20042;-65
2022/09/12 10:43:38;;;;;;;17.23;9.18;;;20.50;95.30;;;;;;5015135;28;20121;-65
2022/09/12 10:46:16;;;;;;;19.00;8.82;;;20.60;93.90;;;;;;5015417;28;20057;-65
2022/09/12 10:48:44;;;;;;;15.50;8.52;;;20.60;92.50;;;;;;4997701;28;20050;-65
2022/09/12 10:51:24;;;;;;;16.92;7.10;;;20.60;91.30;;;;;;4997259;28;20120;-65
2022/09/12 10:54:02;;;;;;;17.55;7.68;;;20.80;94.00;;;;;;5014984;28;20076;-64
2022/09/12 10:56:58;;;;;;;12.57;7.50;;;20.80;91.00;;;;;;4997312;28;20124;-65
2022/09/12 10:59:54;;;;;;;17.20;8.18;;;20.80;89.40;;;;;;4997270;28;20049;-65
2022/09/12 11:02:49;;;;;;;19.15;8.05;;;20.90;90.00;;;;;;5014668;28;20045;-65
2022/09/12 11:05:35;;;;;;;14.50;7.40;;;21.00;90.70;;;;;;5007047;28;20116;-65
2022/09/12 11:08:25;;;;;;;14.73;7.72;;;21.00;90.50;;;;;;5034739;28;20041;-65
2022/09/12 11:10:56;;;;;;;12.77;6.85;;;21.10;91.70;;;;;;5034339;28;20045;-65
2022/09/12 11:13:57;;;;;;;14.38;7.10;;;21.20;91.40;;;;;;5034688;28;20041;-65
2022/09/12 11:16:26;;;;;;;12.05;5.93;;;21.30;91.40;;;;;;4931648;28;20154;-65
2022/09/12 11:19:14;;;;;;;16.45;7.38;;;21.30;90.40;;;;;;5034267;28;20045;-65
2022/09/12 11:22:04;;;;;;;10.45;5.82;;;21.40;90.90;;;;;;5016689;28;20048;-65
2022/09/12 11:24:33;;;;;;;;;;;21.50;88.60;;;;;;5016858;28;20099;-65
2022/09/12 11:27:34;;;;;;;12.20;5.65;;;21.50;75.10;;;;;;5029201;28;19969;-65
2022/09/12 11:30:03;;;;;;;10.38;5.72;;;21.50;75.70;;;;;;5014151;28;20040;-65
2022/09/12 11:32:54;;;;;;;11.30;5.60;;;21.60;85.50;;;;;;5073964;28;20036;-65
2022/09/12 11:35:24;;;;;;;9.88;5.38;;;21.60;85.20;;;;;;5041912;28;20102;-66
2022/09/12 11:38:15;;;;;;;8.07;4.38;;;21.70;87.90;;;;;;5053985;28;20115;-65
2022/09/12 11:40:59;;;;;;;9.55;5.18;;;21.80;79.20;;;;;;5054142;28;20041;-65
2022/09/12 11:43:34;;;;;;;10.35;5.95;;;21.90;71.80;;;;;;5054046;28;20080;-65
2022/09/12 11:46:18;;;;;;;9.85;5.70;;;21.90;72.50;;;;;;5036182;28;20059;-65
2022/09/12 11:48:50;;;;;;;11.38;5.93;;;22.00;78.60;;;;;;5053669;28;20505;-65
2022/09/12 11:51:28;;;;;;;10.13;5.30;;;22.10;75.60;;;;;;5053778;28;20123;-65
2022/09/12 11:54:15;;;;;;;8.10;5.00;;;22.10;71.30;;;;;;5053642;28;20040;-65
2022/09/12 11:56:45;;;;;;;9.23;4.50;;;22.00;61.80;;;;;;5053476;28;20081;-65
2022/09/12 11:59:31;;;;;;;8.25;4.63;;;22.00;72.90;;;;;;5053348;28;20055;-65
2022/09/12 12:01:58;;;;;;;5.93;4.07;;;22.10;66.80;;;;;;5035879;28;20424;-65
2022/09/12 12:04:40;;;;;;;7.82;4.50;;;22.20;70.50;;;;;;5019310;28;20053;-65
2022/09/12 12:07:10;;;;;;;9.25;4.95;;;22.30;70.40;;;;;;5053179;28;20037;-65
2022/09/12 12:09:48;;;;;;;9.00;4.50;;;22.40;69.40;;;;;;5053452;28;20048;-65
2022/09/12 12:12:23;;;;;;;8.40;4.53;;;22.50;74.90;;;;;;5053369;28;20632;-64
2022/09/12 12:14:52;;;;;;;10.98;5.45;;;22.60;64.50;;;;;;5053487;28;20048;-66
2022/09/12 12:17:20;;;;;;;10.43;5.13;;;22.70;64.90;;;;;;5053466;28;20041;-65
2022/09/12 12:19:56;;;;;;;7.68;4.35;;;22.70;64.30;;;;;;5035641;28;20053;-65
2022/09/12 12:22:24;;;;;;;9.05;4.63;;;22.70;67.60;;;;;;5035318;28;20144;-65
2022/09/12 12:25:07;;;;;;;7.60;4.32;;;22.70;65.80;;;;;;5053366;28;20045;-65
2022/09/12 12:27:57;;;;;;;9.07;4.82;;;22.80;54.70;;;;;;5052991;28;20127;-65
2022/09/12 12:30:29;;;;;;;10.00;5.75;;;22.80;57.30;;;;;;5052769;28;20054;-65
2022/09/12 12:33:24;;;;;;;8.43;4.78;;;22.80;64.10;;;;;;5035104;28;20044;-65
2022/09/12 12:35:59;;;;;;;9.75;5.15;;;22.90;60.20;;;;;;5053157;28;20055;-65
2022/09/12 12:38:39;;;;;;;8.43;4.75;;;22.80;55.40;;;;;;5043403;28;20094;-65
2022/09/12 12:41:17;;;;;;;;;;;22.90;52.70;;;;;;5035363;28;20048;-65
2022/09/12 12:43:48;;;;;;;6.68;3.05;;;22.90;42.50;;;;;;5053094;28;19916;-64
2022/09/12 12:46:22;;;;;;;7.88;3.97;;;22.90;53.60;;;;;;5052944;28;20044;-65
2022/09/12 12:49:18;;;;;;;5.70;3.78;;;22.80;45.00;;;;;;5052357;28;20072;-65
2022/09/12 12:51:53;;;;;;;8.25;4.13;;;22.80;42.10;;;;;;5052849;28;20045;-65
2022/09/12 12:54:47;;;;;;;6.57;4.15;;;22.80;55.70;;;;;;5035098;28;20039;-65
2022/09/12 12:57:18;;;;;;;7.80;4.28;;;22.90;51.10;;;;;;5052947;28;20040;-65
2022/09/12 13:00:24;;;;;;;6.50;4.22;;;22.90;55.70;;;;;;5018654;28;20045;-65
2022/09/12 13:03:05;;;;;;;6.18;4.25;;;22.90;52.90;;;;;;5039656;28;20041;-65
2022/09/12 13:05:46;;;;;;;9.10;4.40;;;22.90;46.10;;;;;;5053206;28;20041;-65
2022/09/12 13:08:17;;;;;;;8.65;4.70;;;22.90;45.80;;;;;;5052489;28;20079;-65
2022/09/12 13:10:50;;;;;;;6.45;4.03;;;22.90;41.30;;;;;;5034631;28;20127;-65
2022/09/12 13:13:26;;;;;;;7.50;4.03;;;22.90;45.60;;;;;;5052786;28;20044;-65